Time;durP1;ratioP1;P1;durP2;ratioP2;P2;SDS_P1;SDS_P2;PMS_P1;PMS_P2;Temp;Humidity;BMP_temperature;BMP_pressure;BME280_temperature;BME280_humidity;BME280_pressure;Samples;Min_cycle;Max_cycle;Signal;HPM_P1;HPM_P2
2022/12/04 00:00:56;;;;;;;74.50;36.95;;;;;;;2.70;67.06;101704.97;5027442;28;20028;-61
2022/12/04 00:03:22;;;;;;;71.55;35.85;;;;;;;2.69;67.46;101689.56;5028113;28;20039;-60
2022/12/04 00:05:47;;;;;;;79.75;37.10;;;;;;;2.69;66.44;101692.31;5037227;28;20097;-60
2022/12/04 00:08:12;;;;;;;74.63;36.03;;;;;;;2.69;66.81;101689.56;5049134;28;20037;-61
2022/12/04 00:10:42;;;;;;;73.10;36.85;;;;;;;2.72;67.36;101690.25;5048039;28;20029;-61
2022/12/04 00:13:07;;;;;;;68.60;34.08;;;;;;;2.72;67.28;101690.25;5046034;28;20047;-61
2022/12/04 00:15:33;;;;;;;75.72;36.70;;;;;;;2.74;67.15;101682.69;5022934;28;20034;-61
2022/12/04 00:17:58;;;;;;;71.25;36.60;;;;;;;2.73;67.21;101681.84;5028434;28;20044;-61
2022/12/04 00:20:23;;;;;;;75.68;38.00;;;;;;;2.70;66.99;101682.19;5029600;28;20033;-61
2022/12/04 00:22:48;;;;;;;71.93;36.53;;;;;;;2.73;67.53;101681.00;5029672;28;20044;-61
2022/12/04 00:25:14;;;;;;;75.25;36.40;;;;;;;2.73;66.99;101678.25;5040914;28;20024;-61
2022/12/04 00:27:39;;;;;;;71.53;36.50;;;;;;;2.70;67.24;101680.31;5039870;28;20464;-61
2022/12/04 00:30:05;;;;;;;71.72;37.30;;;;;;;2.68;66.88;101676.06;5047122;28;20028;-61
2022/12/04 00:32:30;;;;;;;72.55;35.40;;;;;;;2.69;67.03;101675.00;5012519;28;20038;-61
2022/12/04 00:34:55;;;;;;;76.55;38.63;;;;;;;2.69;67.31;101678.59;5009979;28;20062;-61
2022/12/04 00:37:21;;;;;;;68.40;34.83;;;;;;;2.68;67.12;101682.38;5026114;28;20037;-61
2022/12/04 00:39:46;;;;;;;75.30;37.33;;;;;;;2.68;67.24;101676.91;5029196;28;20500;-61
2022/12/04 00:42:11;;;;;;;73.43;36.10;;;;;;;2.72;67.35;101693.00;5033290;28;20033;-61
2022/12/04 00:44:37;;;;;;;68.43;36.00;;;;;;;2.73;66.79;101673.63;5028042;28;20033;-61
2022/12/04 00:47:02;;;;;;;75.75;37.85;;;;;;;2.73;67.38;101673.63;5038701;28;20044;-61
2022/12/04 00:49:27;;;;;;;73.68;36.15;;;;;;;2.71;67.21;101667.44;5026845;28;20034;-61
2022/12/04 00:51:52;;;;;;;71.70;36.30;;;;;;;2.72;67.33;101665.59;5041788;28;20098;-61
2022/12/04 00:54:18;;;;;;;69.60;36.28;;;;;;;2.73;66.92;101681.00;5042136;28;20038;-61
2022/12/04 00:56:43;;;;;;;74.78;38.28;;;;;;;2.73;67.21;101676.34;5042332;28;20784;-60
2022/12/04 00:59:09;;;;;;;70.68;36.17;;;;;;;2.73;67.27;101668.13;5034152;28;20029;-61
2022/12/04 01:01:34;;;;;;;75.97;36.88;;;;;;;2.72;67.02;101668.31;5029025;28;20097;-61
2022/12/04 01:04:00;;;;;;;71.70;36.47;;;;;;;2.68;67.33;101671.41;5039834;28;20481;-61
2022/12/04 01:06:32;;;;;;;70.90;37.20;;;;;;;2.71;67.11;101672.94;5027236;28;20044;-61
2022/12/04 01:08:59;;;;;;;73.80;36.60;;;;;;;2.70;66.95;101682.19;5047851;28;20030;-61
2022/12/04 01:11:26;;;;;;;75.07;37.40;;;;;;;2.69;66.98;101681.34;5033115;28;20159;-61
2022/12/04 01:13:52;;;;;;;75.72;37.90;;;;;;;2.70;67.32;101677.56;5036234;28;20037;-61
2022/12/04 01:16:31;;;;;;;71.28;37.13;;;;;;;2.72;67.49;101684.78;5049834;28;20040;-61
2022/12/04 01:18:56;;;;;;;74.75;38.60;;;;;;;2.73;67.04;101678.25;5045525;28;20069;-61
2022/12/04 01:21:22;;;;;;;70.22;37.25;;;;;;;2.71;67.43;101689.38;5027869;28;20060;-61
2022/12/04 01:23:47;;;;;;;70.82;36.60;;;;;;;2.75;67.13;101684.38;5039841;28;20155;-61
2022/12/04 01:26:12;;;;;;;67.38;34.95;;;;;;;2.74;67.01;101685.44;5044231;28;20033;-61
2022/12/04 01:28:38;;;;;;;72.82;36.40;;;;;;;2.74;67.80;101693.66;5051788;28;20029;-60
2022/12/04 01:31:09;;;;;;;74.25;37.33;;;;;;;2.74;67.30;101688.16;5051874;28;20087;-61
2022/12/04 01:33:36;;;;;;;69.90;36.63;;;;;;;2.75;67.02;101689.88;5049014;28;20493;-61
2022/12/04 01:36:04;;;;;;;75.03;37.55;;;;;;;2.74;67.15;101691.75;5030892;28;20073;-61
2022/12/04 01:38:30;;;;;;;73.45;36.25;;;;;;;2.75;67.46;101696.22;5025381;28;20047;-61
2022/12/04 01:40:57;;;;;;;69.28;35.83;;;;;;;2.76;67.33;101691.59;5014376;28;20069;-61
2022/12/04 01:43:23;;;;;;;72.55;36.47;;;;;;;2.75;66.87;101689.88;5051569;28;20499;-61
2022/12/04 01:45:51;;;;;;;71.47;36.30;;;;;;;2.75;67.33;101684.38;5046980;28;20040;-61
2022/12/04 01:48:29;;;;;;;73.57;38.75;;;;;;;2.77;67.15;101676.84;5031133;28;20098;-61
2022/12/04 01:51:13;;;;;;;67.88;35.38;;;;;;;2.76;67.26;101678.75;5034476;28;20491;-61
2022/12/04 01:53:42;;;;;;;69.05;36.00;;;;;;;2.77;67.59;101671.38;5037548;28;20092;-61
2022/12/04 01:56:08;;;;;;;70.15;37.42;;;;;;;2.77;67.30;101671.38;5023125;28;20555;-61
2022/12/04 01:58:42;;;;;;;68.20;35.85;;;;;;;2.77;67.31;101668.63;5032041;28;20108;-61
2022/12/04 02:01:08;;;;;;;67.85;35.63;;;;;;;2.73;67.12;101670.88;5033389;28;20037;-61
2022/12/04 02:03:34;;;;;;;67.05;34.78;;;;;;;2.75;66.91;101668.81;5033970;28;20037;-61
2022/12/04 02:06:00;;;;;;;72.72;36.42;;;;;;;2.71;67.49;101667.44;5031752;28;20032;-61
2022/12/04 02:08:26;;;;;;;69.38;37.38;;;;;;;2.73;67.42;101668.13;5038062;28;20029;-61
2022/12/04 02:11:25;;;;;;;69.32;36.30;;;;;;;2.76;66.75;101672.41;5026764;28;20038;-61
2022/12/04 02:14:12;;;;;;;65.90;34.40;;;;;;;2.79;67.17;101669.28;5027695;28;20427;-61
2022/12/04 02:16:49;;;;;;;68.55;36.10;;;;;;;2.76;67.24;101667.78;5032638;28;20033;-61
2022/12/04 02:19:32;;;;;;;70.20;36.10;;;;;;;2.78;67.60;101667.56;5034289;28;20084;-61
2022/12/04 02:22:01;;;;;;;71.85;36.92;;;;;;;2.72;67.07;101660.94;5046768;28;20116;-61
2022/12/04 02:24:53;;;;;;;70.45;36.08;;;;;;;2.70;67.17;101663.84;5046029;28;20075;-61
2022/12/04 02:27:49;;;;;;;67.57;36.58;;;;;;;2.72;67.00;101663.69;5026475;28;20044;-61
2022/12/04 02:30:15;;;;;;;67.15;36.53;;;;;;;2.69;67.20;101664.03;5021416;28;20033;-61
2022/12/04 02:32:52;;;;;;;71.80;37.42;;;;;;;2.69;67.65;101667.63;5031043;28;20033;-61
2022/12/04 02:35:25;;;;;;;69.57;37.72;;;;;;;2.66;66.76;101657.03;5023948;28;20594;-61
2022/12/04 02:38:02;;;;;;;71.88;38.50;;;;;;;2.62;67.65;101672.13;5031785;28;20048;-61
2022/12/04 02:40:37;;;;;;;70.65;37.38;;;;;;;2.62;67.80;101665.81;5029644;28;20121;-61
2022/12/04 02:43:11;;;;;;;70.30;37.30;;;;;;;2.62;67.24;101668.53;5028393;28;20489;-60
2022/12/04 02:45:45;;;;;;;70.97;36.95;;;;;;;2.60;67.44;101665.16;5023378;28;20071;-60
2022/12/04 02:48:17;;;;;;;69.25;36.88;;;;;;;2.59;67.70;101667.00;5030900;28;20029;-61
2022/12/04 02:50:46;;;;;;;71.05;37.50;;;;;;;2.61;67.51;101664.97;5038741;28;20039;-61
2022/12/04 02:53:20;;;;;;;69.78;36.67;;;;;;;2.60;67.63;101660.50;5027370;28;20037;-61
2022/12/04 02:56:01;;;;;;;71.25;37.05;;;;;;;2.65;67.09;101657.22;5032324;28;20041;-61
2022/12/04 02:58:37;;;;;;;68.15;37.10;;;;;;;2.61;67.26;101651.25;5033020;28;20392;-61
2022/12/04 03:01:18;;;;;;;72.40;38.75;;;;;;;2.58;66.95;101653.50;5030535;28;20136;-61
2022/12/04 03:03:50;;;;;;;70.32;37.45;;;;;;;2.55;67.43;101653.84;5020273;28;20030;-61
2022/12/04 03:06:19;;;;;;;72.20;37.05;;;;;;;2.55;67.32;101648.38;5033472;28;20544;-61
2022/12/04 03:08:49;;;;;;;71.78;37.28;;;;;;;2.57;67.09;101657.28;5029494;28;20037;-61
2022/12/04 03:11:15;;;;;;;71.82;38.67;;;;;;;2.60;67.40;101649.56;5033270;28;20068;-61
2022/12/04 03:13:42;;;;;;;73.15;39.47;;;;;;;2.57;67.51;101647.16;5037773;28;20057;-61
2022/12/04 03:16:29;;;;;;;74.90;41.58;;;;;;;2.55;67.07;101651.97;5026585;28;20051;-61
2022/12/04 03:19:13;;;;;;;72.60;39.15;;;;;;;2.56;67.35;101653.69;5021475;28;20044;-61
2022/12/04 03:21:45;;;;;;;73.13;38.65;;;;;;;2.57;67.32;101654.53;5030124;28;20421;-61
2022/12/04 03:24:16;;;;;;;69.82;37.00;;;;;;;2.57;67.48;101660.88;5028680;28;20389;-61
2022/12/04 03:26:49;;;;;;;68.20;38.63;;;;;;;2.56;67.46;101652.84;5028780;28;20038;-61
2022/12/04 03:29:28;;;;;;;73.22;39.95;;;;;;;2.55;67.18;101657.44;5025744;28;20032;-61
2022/12/04 03:32:32;;;;;;;70.95;37.35;;;;;;;2.52;67.12;101648.75;5028130;28;20120;-61
2022/12/04 03:35:07;;;;;;;72.47;38.30;;;;;;;2.53;66.98;101648.56;5023296;28;20057;-61
2022/12/04 03:38:03;;;;;;;71.50;38.30;;;;;;;2.55;67.92;101646.47;5025770;28;20060;-61
2022/12/04 03:40:42;;;;;;;73.05;38.13;;;;;;;2.54;67.21;101638.44;5029349;28;20029;-61
2022/12/04 03:43:15;;;;;;;73.30;40.05;;;;;;;2.54;67.86;101643.94;5034508;28;20032;-61
2022/12/04 03:45:55;;;;;;;75.05;41.05;;;;;;;2.52;67.39;101632.31;5030245;28;20144;-60
2022/12/04 03:48:25;;;;;;;72.35;39.17;;;;;;;2.51;68.05;101639.66;5027590;28;20029;-61
2022/12/04 03:51:02;;;;;;;69.78;39.38;;;;;;;2.50;67.17;101637.09;5028348;28;20068;-60
2022/12/04 03:53:46;;;;;;;72.95;38.92;;;;;;;2.46;67.71;101640.19;5027799;28;20071;-61
2022/12/04 03:56:25;;;;;;;72.07;37.78;;;;;;;2.46;68.25;101639.34;5021485;28;20064;-61
2022/12/04 03:58:56;;;;;;;74.45;40.00;;;;;;;2.41;67.42;101633.56;5028796;28;20029;-61
2022/12/04 04:01:27;;;;;;;72.10;39.28;;;;;;;2.41;67.74;101636.31;5028723;28;20038;-60
2022/12/04 04:03:56;;;;;;;76.28;40.58;;;;;;;2.37;68.08;101640.44;5027017;28;20029;-61
2022/12/04 04:06:31;;;;;;;71.35;39.22;;;;;;;2.41;68.58;101634.41;5045327;28;20468;-61
2022/12/04 04:09:02;;;;;;;75.40;39.50;;;;;;;2.47;67.52;101632.84;5026845;28;20033;-61
2022/12/04 04:11:33;;;;;;;72.30;38.72;;;;;;;2.50;67.59;101637.09;5026135;28;20482;-60
2022/12/04 04:25:23;;;;;;;75.15;39.40;;;;;;;2.60;67.42;101638.59;5037683;28;20126;-61
2022/12/04 04:27:56;;;;;;;71.45;38.05;;;;;;;2.57;67.12;101632.63;5025340;28;20059;-61
2022/12/04 04:30:21;;;;;;;74.25;40.03;;;;;;;2.53;67.36;101637.59;5024660;28;20397;-60
2022/12/04 04:32:51;;;;;;;71.78;39.28;;;;;;;2.52;67.92;101630.44;5030021;28;20038;-61
2022/12/04 04:35:30;;;;;;;74.75;39.83;;;;;;;2.52;67.88;101637.78;5029939;28;20061;-61
2022/12/04 04:38:22;;;;;;;74.57;39.40;;;;;;;2.53;67.53;101632.13;5029409;28;20034;-61
2022/12/04 04:40:50;;;;;;;77.32;39.45;;;;;;;2.54;68.05;101622.84;5029326;28;20571;-61
2022/12/04 04:43:25;;;;;;;74.30;38.90;;;;;;;2.53;67.34;101632.13;5026551;28;20370;-61
2022/12/04 04:45:58;;;;;;;71.93;39.25;;;;;;;2.46;67.56;101636.63;5032858;28;20034;-61
2022/12/04 04:48:31;;;;;;;73.22;38.78;;;;;;;2.45;67.53;101633.03;5033839;28;20115;-61
2022/12/04 04:51:00;;;;;;;70.97;38.70;;;;;;;2.46;67.84;101636.63;5032296;28;20029;-61
2022/12/04 04:53:32;;;;;;;70.55;38.50;;;;;;;2.50;67.70;101640.69;5033632;28;20370;-61
2022/12/04 04:55:58;;;;;;;73.07;38.90;;;;;;;2.52;67.62;101640.53;5028468;28;20048;-61
2022/12/04 04:58:23;;;;;;;72.28;39.58;;;;;;;2.51;67.61;101642.41;5030882;28;20045;-60
2022/12/04 05:01:06;;;;;;;69.72;38.67;;;;;;;2.51;67.85;101644.28;5031493;28;20068;-61
2022/12/04 05:03:31;;;;;;;;;;;;;;;2.64;67.77;101639.94;5034034;28;20092;-61
2022/12/04 05:05:56;;;;;;;73.55;39.47;;;;;;;2.58;67.89;101643.38;5031380;28;19917;-61
2022/12/04 05:08:22;;;;;;;73.68;38.63;;;;;;;2.57;67.36;101649.91;5033336;28;20037;-61
2022/12/04 05:10:47;;;;;;;76.72;40.05;;;;;;;2.54;68.00;101649.41;5032166;28;20039;-61
2022/12/04 05:13:14;;;;;;;71.90;39.20;;;;;;;2.56;67.86;101645.47;5030949;28;20099;-61
2022/12/04 05:15:39;;;;;;;76.63;41.35;;;;;;;2.56;67.53;101642.72;5029316;28;20485;-61
2022/12/04 05:18:04;;;;;;;73.50;38.80;;;;;;;2.57;67.84;101640.84;5026917;28;20048;-61
2022/12/04 05:20:31;;;;;;;76.00;40.47;;;;;;;2.55;68.16;101642.88;5032172;28;20025;-61
2022/12/04 05:22:56;;;;;;;77.60;39.42;;;;;;;2.51;68.01;101639.66;5032584;28;20025;-61
2022/12/04 05:25:22;;;;;;;74.72;39.58;;;;;;;2.51;68.24;101639.66;5033158;28;20461;-61
2022/12/04 05:27:50;;;;;;;72.82;39.00;;;;;;;2.54;67.75;101642.03;5031853;28;20037;-61
2022/12/04 05:30:15;;;;;;;74.15;39.03;;;;;;;2.55;68.43;101638.25;5032207;28;20051;-61
2022/12/04 05:32:41;;;;;;;74.63;40.05;;;;;;;2.55;68.01;101641.00;5029995;28;20033;-61
2022/12/04 05:35:06;;;;;;;76.53;40.63;;;;;;;2.52;67.90;101646.00;5030641;28;20065;-61
2022/12/04 05:37:36;;;;;;;71.40;37.72;;;;;;;2.51;68.06;101642.41;5031976;28;20033;-61
2022/12/04 05:40:02;;;;;;;74.95;40.83;;;;;;;2.48;68.51;101640.03;5032269;28;20485;-61
2022/12/04 05:42:27;;;;;;;73.88;39.63;;;;;;;2.47;68.59;101643.78;5031728;28;20051;-60
2022/12/04 05:44:52;;;;;;;73.32;38.25;;;;;;;2.45;68.02;101630.28;5032469;28;20029;-61
2022/12/04 05:47:18;;;;;;;71.95;38.17;;;;;;;2.47;68.73;101636.41;5031424;28;20033;-61
2022/12/04 05:49:43;;;;;;;77.35;39.78;;;;;;;2.50;67.99;101628.88;5026410;28;20124;-61
2022/12/04 05:52:09;;;;;;;72.05;39.45;;;;;;;2.52;68.11;101629.56;5031961;28;20535;-61
2022/12/04 05:54:34;;;;;;;73.45;39.55;;;;;;;2.53;68.12;101623.91;5030429;28;20022;-61
2022/12/04 05:57:00;;;;;;;72.82;38.95;;;;;;;2.58;68.36;101623.34;5032456;28;20083;-61
2022/12/04 05:59:25;;;;;;;70.97;38.55;;;;;;;2.55;68.02;101623.72;5031330;28;20021;-61
2022/12/04 06:01:51;;;;;;;75.97;40.58;;;;;;;2.55;67.78;101624.56;5031097;28;20034;-61
2022/12/04 06:04:16;;;;;;;71.28;39.42;;;;;;;2.56;68.55;101626.28;5023317;28;20033;-61
2022/12/04 06:06:41;;;;;;;71.68;38.78;;;;;;;2.58;67.98;101618.72;5031202;28;20033;-61
2022/12/04 06:09:07;;;;;;;72.10;38.88;;;;;;;2.58;68.01;101615.97;5031270;28;20064;-61
2022/12/04 06:11:35;;;;;;;74.15;39.60;;;;;;;2.54;68.86;101620.13;5032084;28;20083;-61
2022/12/04 06:14:03;;;;;;;72.75;40.55;;;;;;;2.57;67.98;101616.16;5031758;28;20071;-61
2022/12/04 06:16:34;;;;;;;71.80;39.55;;;;;;;2.58;68.01;101615.97;5031148;28;20033;-61
2022/12/04 06:19:09;;;;;;;74.37;39.07;;;;;;;2.61;68.23;101620.25;5030859;28;20069;-61
2022/12/04 06:21:36;;;;;;;72.85;38.33;;;;;;;2.56;68.04;101620.81;5025479;28;21008;-61
2022/12/04 06:24:03;;;;;;;76.40;40.90;;;;;;;2.55;68.29;101616.34;5030961;28;20030;-61
2022/12/04 06:26:29;;;;;;;77.13;41.22;;;;;;;2.54;68.63;101633.81;5031286;28;20809;-61
2022/12/04 06:28:56;;;;;;;72.22;37.92;;;;;;;2.52;68.21;101624.09;5031071;28;20030;-61
2022/12/04 06:31:23;;;;;;;72.78;39.05;;;;;;;2.51;68.66;101623.22;5010484;28;20033;-61
2022/12/04 06:33:48;;;;;;;73.70;38.88;;;;;;;2.52;68.88;101624.94;5013542;28;20033;-61
2022/12/04 06:36:16;;;;;;;68.82;37.90;;;;;;;2.53;68.30;101621.16;5028509;28;20489;-61
2022/12/04 06:38:42;;;;;;;68.47;38.58;;;;;;;2.55;68.32;101624.56;5027679;28;20037;-60
2022/12/04 06:41:10;;;;;;;73.70;39.58;;;;;;;2.57;68.10;101630.72;5030753;28;20036;-60
2022/12/04 06:43:36;;;;;;;79.28;41.55;;;;;;;2.59;68.37;101627.78;5030276;28;20049;-60
2022/12/04 06:46:04;;;;;;;73.45;38.78;;;;;;;2.61;68.09;101631.22;5031127;28;20515;-60
2022/12/04 06:48:30;;;;;;;72.07;39.28;;;;;;;2.62;68.56;101631.03;5030778;28;20060;-61
2022/12/04 06:51:18;;;;;;;68.85;38.55;;;;;;;2.67;68.36;101630.47;5030099;28;20096;-61
2022/12/04 06:53:43;;;;;;;71.63;38.58;;;;;;;2.64;68.14;101625.38;5030614;28;20029;-61
2022/12/04 06:56:13;;;;;;;72.88;39.88;;;;;;;2.62;68.66;101624.69;5029129;28;20040;-61
2022/12/04 06:58:38;;;;;;;71.75;39.10;;;;;;;2.62;68.48;101630.16;5029071;28;20064;-60
2022/12/04 07:01:08;;;;;;;70.05;38.88;;;;;;;2.60;68.62;101635.84;5030628;28;20029;-61
2022/12/04 07:03:34;;;;;;;66.75;38.83;;;;;;;2.60;68.22;101635.84;5031111;28;20033;-61
2022/12/04 07:06:09;;;;;;;74.47;40.58;;;;;;;2.61;68.15;101647.66;5029765;28;20033;-61
2022/12/04 07:08:35;;;;;;;73.85;38.70;;;;;;;2.61;68.47;101655.88;5030864;28;20547;-61
2022/12/04 07:11:01;;;;;;;73.15;38.88;;;;;;;2.55;68.69;101641.00;5030373;28;20112;-61
2022/12/04 07:13:26;;;;;;;70.93;38.47;;;;;;;2.51;68.34;101647.03;5026221;28;20116;-61
2022/12/04 07:15:51;;;;;;;72.03;38.22;;;;;;;2.52;68.23;101640.53;5030653;28;20477;-61
2022/12/04 07:18:17;;;;;;;74.63;39.90;;;;;;;2.51;68.18;101650.63;5029736;28;20376;-61
2022/12/04 07:20:42;;;;;;;72.35;38.42;;;;;;;2.50;68.36;101653.56;5030022;28;20022;-61
2022/12/04 07:23:07;;;;;;;70.18;38.70;;;;;;;2.48;68.59;101651.00;5030893;28;20469;-61
2022/12/04 07:25:33;;;;;;;73.97;38.42;;;;;;;2.47;68.41;101654.75;5030503;28;20021;-61
2022/12/04 07:27:58;;;;;;;71.80;38.70;;;;;;;2.49;69.14;101658.19;5029911;28;20555;-61
2022/12/04 07:30:23;;;;;;;69.57;36.50;;;;;;;2.52;69.10;101667.94;5026813;28;20039;-61
2022/12/04 07:32:48;;;;;;;69.93;38.35;;;;;;;2.51;68.55;101667.06;5028991;28;20412;-62
2022/12/04 07:35:14;;;;;;;65.63;37.88;;;;;;;2.47;69.05;101673.94;5030086;28;20049;-61
2022/12/04 07:37:39;;;;;;;70.97;38.15;;;;;;;2.46;68.89;101664.00;5030154;28;20029;-61
2022/12/04 07:40:05;;;;;;;65.68;37.80;;;;;;;2.46;68.72;101664.88;5024522;28;20029;-61
2022/12/04 07:42:30;;;;;;;67.55;37.05;;;;;;;2.47;68.70;101669.31;5029703;28;20079;-61
2022/12/04 07:44:56;;;;;;;67.57;36.42;;;;;;;2.47;68.68;101661.09;5029700;28;20060;-61
2022/12/04 07:47:21;;;;;;;65.82;36.88;;;;;;;2.42;68.25;101669.00;5028265;28;20768;-61
2022/12/04 07:49:46;;;;;;;62.70;34.20;;;;;;;2.41;68.85;101674.66;5026360;28;20037;-61
2022/12/04 07:52:11;;;;;;;63.88;35.15;;;;;;;2.42;68.74;101668.16;5025212;28;20036;-61
2022/12/04 07:54:36;;;;;;;66.22;36.40;;;;;;;2.43;68.65;101670.69;5028910;28;20047;-61
2022/12/04 07:57:04;;;;;;;64.80;36.10;;;;;;;2.45;69.04;101670.53;5029544;28;20030;-61
2022/12/04 07:59:30;;;;;;;60.95;36.03;;;;;;;2.50;69.12;101675.47;5030094;28;20116;-61
2022/12/04 08:01:55;;;;;;;63.78;36.85;;;;;;;2.52;69.00;101666.03;5025801;28;20111;-61
2022/12/04 08:04:20;;;;;;;59.85;34.72;;;;;;;2.52;69.06;101668.78;5029882;28;20060;-61
2022/12/04 08:06:45;;;;;;;58.92;35.10;;;;;;;2.55;68.97;101679.38;5029061;28;20040;-61
2022/12/04 08:09:11;;;;;;;61.72;34.78;;;;;;;2.57;68.72;101681.94;5027869;28;20033;-61
2022/12/04 08:11:36;;;;;;;61.25;35.22;;;;;;;2.52;68.42;101677.00;5025651;28;20030;-60
2022/12/04 08:14:04;;;;;;;64.80;35.88;;;;;;;2.52;69.10;101676.16;5028559;28;20146;-61
2022/12/04 08:16:31;;;;;;;62.67;34.08;;;;;;;2.55;68.78;101686.75;5029793;28;20038;-61
2022/12/04 08:18:57;;;;;;;59.92;33.85;;;;;;;2.56;68.40;101689.31;5032679;28;20033;-61
2022/12/04 08:21:26;;;;;;;58.53;33.17;;;;;;;2.57;68.61;101685.53;5033951;28;20040;-61
2022/12/04 08:23:53;;;;;;;57.28;33.00;;;;;;;2.58;68.91;101684.50;5033121;28;20489;-61
2022/12/04 08:26:21;;;;;;;54.80;31.98;;;;;;;2.60;68.31;101693.41;5032671;28;20049;-61
2022/12/04 08:28:46;;;;;;;60.95;33.60;;;;;;;2.59;68.92;101680.72;5033066;28;20424;-60
2022/12/04 08:31:14;;;;;;;59.65;32.58;;;;;;;2.60;68.50;101696.16;5029259;28;20041;-60
2022/12/04 08:33:41;;;;;;;52.55;30.38;;;;;;;2.61;68.16;101684.13;5033440;28;20064;-60
2022/12/04 08:36:09;;;;;;;54.88;31.00;;;;;;;2.60;68.40;101679.69;5030207;28;20037;-60
2022/12/04 08:38:35;;;;;;;56.85;31.70;;;;;;;2.63;68.81;101684.81;5020827;28;20036;-60
2022/12/04 08:41:02;;;;;;;55.30;31.10;;;;;;;2.66;68.13;101687.19;5040110;28;20036;-61
2022/12/04 08:43:27;;;;;;;51.47;30.63;;;;;;;2.68;68.13;101682.38;5045474;28;20030;-60
2022/12/04 08:45:55;;;;;;;52.88;29.35;;;;;;;2.68;68.27;101685.13;5048909;28;20152;-60
2022/12/04 08:48:20;;;;;;;52.50;29.38;;;;;;;2.70;68.43;101674.81;5032777;28;20029;-61
2022/12/04 08:50:46;;;;;;;49.85;27.95;;;;;;;2.85;73.21;101677.63;5017323;28;20035;-60
2022/12/04 08:53:11;;;;;;;53.70;30.25;;;;;;;2.78;69.15;101675.81;5023254;28;20025;-63
2022/12/04 08:55:36;;;;;;;55.33;30.63;;;;;;;2.85;71.42;101674.06;5031207;28;20025;-60
2022/12/04 08:58:04;;;;;;;50.80;29.52;;;;;;;2.89;68.54;101670.75;5031887;28;20083;-60
2022/12/04 09:00:30;;;;;;;43.53;27.58;;;;;;;2.94;70.43;101662.81;5033004;28;20043;-59
2022/12/04 09:02:56;;;;;;;48.53;28.75;;;;;;;2.89;68.26;101669.91;5033157;28;20026;-60
2022/12/04 09:05:21;;;;;;;52.05;29.40;;;;;;;2.82;68.14;101669.78;5029146;28;20022;-60
2022/12/04 09:07:46;;;;;;;48.97;29.20;;;;;;;2.81;67.54;101672.72;5037068;28;20037;-61
2022/12/04 09:10:12;;;;;;;46.65;28.60;;;;;;;2.81;67.92;101672.72;5029079;28;20030;-60
2022/12/04 09:12:43;;;;;;;48.78;29.05;;;;;;;2.82;68.25;101668.91;5030779;28;20021;-60
2022/12/04 09:15:11;;;;;;;46.95;27.30;;;;;;;2.81;68.03;101679.03;5032246;28;20116;-60
2022/12/04 09:17:36;;;;;;;46.03;27.50;;;;;;;2.87;69.65;101677.44;5029909;28;20029;-61
2022/12/04 09:20:06;;;;;;;44.13;26.95;;;;;;;2.87;68.21;101677.44;5028544;28;20031;-60
2022/12/04 09:22:36;;;;;;;47.53;27.88;;;;;;;2.97;71.29;101677.22;5025729;28;20036;-60
2022/12/04 09:25:03;;;;;;;47.47;27.33;;;;;;;2.90;67.80;101682.56;5027593;28;20029;-61
2022/12/04 09:27:29;;;;;;;45.55;27.13;;;;;;;2.89;67.60;101683.63;5018134;28;20044;-61
2022/12/04 09:29:54;;;;;;;44.78;26.50;;;;;;;2.87;67.46;101688.41;5025015;28;20041;-61
2022/12/04 09:32:20;;;;;;;45.83;27.33;;;;;;;2.85;67.73;101687.75;5031505;28;20037;-61
2022/12/04 09:34:46;;;;;;;48.95;28.38;;;;;;;2.87;67.79;101682.94;5032142;28;20029;-61
2022/12/04 09:37:12;;;;;;;47.47;27.35;;;;;;;2.88;67.60;101690.16;5029629;28;20388;-62
2022/12/04 09:39:37;;;;;;;46.53;27.45;;;;;;;2.90;67.58;101679.81;5029282;28;20036;-61
2022/12/04 09:42:15;;;;;;;43.92;25.90;;;;;;;2.92;67.92;101691.47;5018140;28;20050;-61
2022/12/04 09:44:45;;;;;;;48.67;28.63;;;;;;;2.90;67.75;101682.56;5031385;28;20068;-61
2022/12/04 09:47:21;;;;;;;44.75;25.90;;;;;;;2.89;67.50;101678.13;5025510;28;20165;-61
2022/12/04 09:49:57;;;;;;;39.95;25.60;;;;;;;2.89;67.32;101678.13;5024702;28;20398;-62
2022/12/04 09:52:59;;;;;;;43.70;25.80;;;;;;;2.89;68.16;101686.34;5014961;28;20030;-61
2022/12/04 09:55:30;;;;;;;42.60;24.57;;;;;;;2.88;67.34;101690.16;5024417;28;20116;-61
2022/12/04 09:58:00;;;;;;;43.53;26.35;;;;;;;2.85;67.36;101691.34;5026997;28;20061;-61
2022/12/04 10:00:28;;;;;;;39.85;23.50;;;;;;;2.84;66.34;101695.13;5024391;28;20029;-61
2022/12/04 10:03:05;;;;;;;38.53;23.58;;;;;;;2.85;67.05;101699.56;5029467;28;20040;-62
2022/12/04 10:05:55;;;;;;;40.72;22.60;;;;;;;2.81;66.48;101691.91;5030030;28;20147;-61
2022/12/04 10:08:30;;;;;;;38.95;23.35;;;;;;;2.77;67.46;101691.41;5028742;28;20394;-61
2022/12/04 10:11:04;;;;;;;37.75;23.55;;;;;;;2.71;66.50;101692.13;5031781;28;20061;-61
2022/12/04 10:14:02;;;;;;;37.75;22.73;;;;;;;2.73;66.82;101687.31;5030885;28;20029;-61
2022/12/04 10:16:38;;;;;;;39.03;21.80;;;;;;;2.70;66.95;101688.53;5010981;28;20045;-61
2022/12/04 10:19:28;;;;;;;39.92;23.58;;;;;;;2.74;66.85;101685.44;5024650;28;20044;-61
2022/12/04 10:22:12;;;;;;;38.40;23.35;;;;;;;2.74;66.98;101679.94;5026865;28;20480;-61
2022/12/04 10:24:45;;;;;;;40.40;22.27;;;;;;;2.75;66.27;101677.03;5028419;28;20080;-62
2022/12/04 10:27:24;;;;;;;39.17;23.20;;;;;;;2.79;66.57;101683.00;5029028;28;20047;-63
2022/12/04 10:30:16;;;;;;;39.53;23.92;;;;;;;2.79;67.49;101678.38;5029843;28;20021;-62
2022/12/04 10:32:44;;;;;;;38.50;22.45;;;;;;;2.77;66.61;101680.44;5022375;28;20575;-62
2022/12/04 10:35:22;;;;;;;36.78;22.63;;;;;;;2.79;67.50;101677.50;5030225;28;20404;-60
2022/12/04 10:37:56;;;;;;;38.58;23.13;;;;;;;2.77;67.09;101682.34;5026702;28;20052;-61
2022/12/04 10:40:30;;;;;;;43.20;23.90;;;;;;;2.77;67.61;101687.81;5016156;28;20030;-61
2022/12/04 10:43:11;;;;;;;37.00;22.95;;;;;;;2.75;67.43;101689.88;5024968;28;20110;-61
2022/12/04 10:45:37;;;;;;;35.15;21.88;;;;;;;2.74;67.18;101683.53;5028259;28;20025;-61
2022/12/04 10:48:06;;;;;;;40.42;23.98;;;;;;;2.76;67.39;101691.59;5033104;28;20696;-62
2022/12/04 10:50:32;;;;;;;39.17;23.95;;;;;;;2.75;67.02;101689.88;5026151;28;20116;-62
2022/12/04 10:52:58;;;;;;;38.13;24.08;;;;;;;2.74;67.33;101686.28;5028865;28;20112;-61
2022/12/04 10:55:28;;;;;;;36.78;23.58;;;;;;;2.72;67.16;101690.25;5018099;28;20038;-61
2022/12/04 10:57:54;;;;;;;39.08;22.20;;;;;;;2.68;66.74;101682.38;5020885;28;20080;-62
2022/12/04 11:00:24;;;;;;;35.90;21.98;;;;;;;2.68;67.03;101676.91;5021150;28;20114;-61
2022/12/04 11:02:51;;;;;;;36.15;22.92;;;;;;;2.68;67.46;101670.56;5020684;28;20391;-61
2022/12/04 11:05:39;;;;;;;40.85;24.05;;;;;;;2.69;67.10;101664.91;5024461;28;20064;-61
2022/12/04 11:08:06;;;;;;;36.97;22.83;;;;;;;2.63;67.42;101665.63;5028941;28;20044;-60
2022/12/04 11:10:42;;;;;;;40.25;23.65;;;;;;;2.62;67.62;101663.06;5023107;28;20037;-61
2022/12/04 11:13:10;;;;;;;38.15;23.15;;;;;;;2.59;67.34;101669.75;5024524;28;20503;-61
2022/12/04 11:16:02;;;;;;;38.92;23.02;;;;;;;2.64;67.14;101663.75;5027963;28;20082;-64
2022/12/04 11:18:30;;;;;;;36.78;22.10;;;;;;;2.62;67.27;101655.69;5024334;28;20056;-62
2022/12/04 11:21:21;;;;;;;36.00;22.40;;;;;;;2.65;67.98;101647.09;5038835;28;20041;-62
2022/12/04 11:23:49;;;;;;;40.03;23.52;;;;;;;2.66;67.63;101637.84;5038435;28;20037;-61
2022/12/04 11:26:17;;;;;;;39.13;23.73;;;;;;;2.64;67.36;101650.91;5038755;28;20033;-61
2022/12/04 11:28:53;;;;;;;32.88;21.45;;;;;;;2.66;67.35;101637.84;5025522;28;20025;-61
2022/12/04 11:31:21;;;;;;;41.13;25.45;;;;;;;2.93;76.94;101641.09;5011275;28;20045;-62
2022/12/04 11:33:48;;;;;;;38.85;23.00;;;;;;;3.06;68.71;101644.03;5026105;28;20021;-65
2022/12/04 11:36:25;;;;;;;33.75;22.30;;;;;;;3.05;68.18;101647.84;5030194;28;20115;-61
2022/12/04 11:38:53;;;;;;;34.22;22.23;;;;;;;3.00;67.64;101639.31;5036509;28;20167;-60
2022/12/04 11:41:29;;;;;;;38.15;23.38;;;;;;;2.97;67.12;101634.19;5038134;28;20029;-61